Alderney Airport

EGJA · Alderney, Guernsey

Storia di METAR EGJA · Alderney Airport

Di seguito sono riportati i METAR degli ultimi giorni. Seleziona un anno per sfogliare i METAR più vecchi, dall'anno 2007 in poi.

18 luglio 2024

Tempo Codice Tempo meteorologico Temp. Vista Base nuvolosa Vento METAR/SPECI
21:50
V
18 °C 10 km+ - 060° 060° 5 kt METAR EGJB 182050Z 06005KT CAVOK 18/15 Q1019
21:20
V
19 °C 10 km+ - 030° 030° 4 kt METAR EGJB 182020Z 03004KT CAVOK 19/14 Q1019
20:50
V
19 °C 10 km+ - 040° 040° 5 kt METAR EGJB 181950Z 04005KT CAVOK 19/14 Q1019
20:20
V
20 °C 10 km+ - 050° 050° 7 kt METAR EGJB 181920Z 05007KT CAVOK 20/15 Q1019
19:50
V
20 °C 10 km+ - 040° 040° 6 kt METAR EGJB 181850Z 04006KT CAVOK 20/15 Q1018
19:20
V
21 °C 10 km+ - 030° 030° 7 kt METAR EGJB 181820Z 03007KT CAVOK 21/14 Q1018
18:50
V
22 °C 10 km+ - 020° 020° 7 kt METAR EGJB 181750Z 02007KT CAVOK 22/15 Q1018
18:20
V
22 °C 10 km+ - 020° 020° 6 kt METAR EGJB 181720Z 02006KT 350V060 CAVOK 22/15 Q1018
17:50
V
22 °C 10 km+ - 030° 030° 6 kt METAR EGJB 181650Z 03006KT 360V070 CAVOK 22/15 Q1019
17:20
V
23 °C 10 km+ - 030° 030° 6 kt METAR EGJB 181620Z 03006KT 360V070 CAVOK 23/16 Q1019
16:50
V
24 °C 10 km+ - 080° 080° 4 kt METAR EGJB 181550Z 08004KT 050V120 CAVOK 24/15 Q1019
16:20
V
24 °C 10 km+ - 080° 080° 4 kt METAR EGJB 181520Z 08004KT 030V130 CAVOK 24/16 Q1019
15:50
V
24 °C 10 km+ - 010° 010° 5 kt METAR EGJB 181450Z 01005KT 330V070 CAVOK 24/17 Q1019
15:20
V
23 °C 10 km+ - 010° 010° 4 kt METAR EGJB 181420Z 01004KT 330V050 CAVOK 23/17 Q1019
14:50
V
25 °C 10 km+ - Var Var 2 kt METAR EGJB 181350Z VRB02KT CAVOK 25/17 Q1019
14:20
V
23 °C 10 km+ - 150° 150° 3 kt METAR EGJB 181320Z 15003KT 110V190 CAVOK 23/14 Q1019
13:50
V
23 °C 10 km+ - 170° 170° 4 kt METAR EGJB 181250Z 17004KT CAVOK 23/14 Q1019
13:20
V
23 °C 10 km+ - 170° 170° 4 kt METAR EGJB 181220Z 17004KT 140V210 CAVOK 23/15 Q1020
12:50
V
22 °C 10 km+ - 160° 160° 4 kt METAR EGJB 181150Z 16004KT 130V200 9999 R09/0550D NSC 22/15 Q1020
12:20
V
22 °C 10 km+ - 150° 150° 6 kt METAR EGJB 181120Z 15006KT 120V200 CAVOK 22/16 Q1020
11:50
V
21 °C 10 km+ - 170° 170° 6 kt METAR EGJB 181050Z 17006KT CAVOK 21/16 Q1020
11:20
V
20 °C 10 km+ - 160° 160° 7 kt METAR EGJB 181020Z 16007KT CAVOK 20/16 Q1020
10:50
V
19 °C 10 km+ - 150° 150° 8 kt METAR EGJB 180950Z 15008KT CAVOK 19/16 Q1020
10:20
V
19 °C 10 km+ - 150° 150° 9 kt METAR EGJB 180920Z 15009KT CAVOK 19/16 Q1020
09:50
V
19 °C 10 km+ - 150° 150° 9 kt METAR EGJB 180850Z 15009KT CAVOK 19/16 Q1020
09:20
V
19 °C 10 km+ - 150° 150° 8 kt METAR EGJB 180820Z 15008KT CAVOK 19/15 Q1019
08:50
V
18 °C 10 km+ - 140° 140° 8 kt METAR EGJB 180750Z 14008KT CAVOK 18/15 Q1019
08:20
V
19 °C 10 km+ - 140° 140° 7 kt METAR EGJB 180720Z 14007KT CAVOK 19/15 Q1019
07:50
V
18 °C 10 km+ - 140° 140° 8 kt METAR EGJB 180650Z 14008KT CAVOK 18/15 Q1019
07:20
V
18 °C 10 km+ - 130° 130° 9 kt METAR EGJB 180620Z 13009KT CAVOK 18/15 Q1019
06:50
V
18 °C 10 km+ - 130° 130° 9 kt METAR EGJB 180550Z 13009KT CAVOK 18/14 Q1019
06:20
V
17 °C 10 km+ - 120° 120° 10 kt METAR EGJB 180520Z 12010KT CAVOK 17/13 Q1019
05:50
V
17 °C 10 km+ - 110° 110° 9 kt METAR EGJB 180450Z 11009KT CAVOK 17/13 Q1019
05:20
V
17 °C 10 km+ - 110° 110° 9 kt METAR EGJB 180420Z 11009KT CAVOK 17/13 Q1019
04:50
V
17 °C 10 km+ - 110° 110° 11 kt METAR EGJB 180350Z 11011KT CAVOK 17/13 Q1019
04:20
V
17 °C 10 km+ - 110° 110° 9 kt METAR EGJB 180320Z 11009KT 9999 FEW046 17/13 Q1019
03:50
V
17 °C 10 km+ - 100° 100° 10 kt METAR EGJB 180250Z 10010KT 9999 FEW046 17/13 Q1019
02:50
V
17 °C 10 km+ - 110° 110° 10 kt METAR EGJB 180150Z 11010KT 9999 SCT046 17/13 Q1020
01:50
V
16 °C 10 km+ - 100° 100° 9 kt METAR EGJB 180050Z 10009KT 9999 FEW048 16/14 Q1020
00:50
V
16 °C 10 km+ - 110° 110° 9 kt METAR EGJB 172350Z 11009KT CAVOK 16/14 Q1020

17 luglio 2024

Tempo Codice Tempo meteorologico Temp. Vista Base nuvolosa Vento METAR/SPECI
23:50
V
16 °C 10 km+ - 100° 100° 8 kt METAR EGJB 172250Z 10008KT CAVOK 16/14 Q1020
22:50
V
16 °C 10 km+ - 090° 090° 6 kt METAR EGJB 172150Z 09006KT CAVOK 16/14 Q1021
21:50
V
15 °C 10 km+ - 070° 070° 6 kt METAR EGJB 172050Z 07006KT CAVOK 15/14 Q1021
20:50
V
16 °C 10 km+ - 050° 050° 7 kt METAR EGJB 171950Z 05007KT CAVOK 16/14 Q1021
20:20
V
16 °C 10 km+ - 050° 050° 6 kt METAR EGJB 171920Z 05006KT CAVOK 16/13 Q1020
19:50
V
17 °C 10 km+ - 060° 060° 5 kt METAR EGJB 171850Z 06005KT CAVOK 17/12 Q1021
19:20
V
18 °C 10 km+ - 070° 070° 7 kt METAR EGJB 171820Z 07007KT CAVOK 18/12 Q1021
18:50
V
18 °C 10 km+ - 060° 060° 5 kt METAR EGJB 171750Z 06005KT 030V100 CAVOK 18/12 Q1021
18:20
V
18 °C 10 km+ - 070° 070° 6 kt METAR EGJB 171720Z 07006KT 040V100 CAVOK 18/13 Q1021
17:50
V
18 °C 10 km+ - 040° 040° 4 kt METAR EGJB 171650Z 04004KT 360V080 CAVOK 18/14 Q1021
17:20
V
18 °C 10 km+ - 360° 360° 6 kt METAR EGJB 171620Z 36006KT 320V030 9999 FEW021 18/13 Q1021
16:50
V
19 °C 10 km+ - 360° 360° 5 kt METAR EGJB 171550Z 36005KT 320V040 9999 FEW021 19/13 Q1021
16:20
V
19 °C 10 km+ - 330° 330° 5 kt METAR EGJB 171520Z 33005KT 300V010 9999 FEW021 19/13 Q1022
15:50
V
19 °C 10 km+ - 330° 330° 4 kt METAR EGJB 171450Z 33004KT 300V010 9999 FEW021 19/13 Q1022
15:20
V
20 °C 10 km+ - Var Var 3 kt METAR EGJB 171420Z VRB03KT 9999 FEW025 20/13 Q1022
14:50
V
20 °C 10 km+ - 180° 180° 4 kt METAR EGJB 171350Z 18004KT 130V260 9999 FEW025 20/11 Q1022
14:20
V
20 °C 10 km+ - 120° 120° 5 kt METAR EGJB 171320Z 12005KT 080V150 9999 FEW025 20/12 Q1022
13:50
V
19 °C 10 km+ - 220° 220° 4 kt METAR EGJB 171250Z 22004KT 180V270 9999 FEW025 19/12 Q1022
13:20
V
19 °C 10 km+ - 170° 170° 5 kt METAR EGJB 171220Z 17005KT 110V230 9999 FEW025 19/12 Q1022
12:50
V
19 °C 10 km+ - 210° 210° 5 kt METAR EGJB 171150Z 21005KT 9999 FEW016 19/13 Q1022
12:20
V
19 °C 10 km+ - 190° 190° 4 kt METAR EGJB 171120Z 19004KT 150V230 9999 FEW016 19/12 Q1022
11:50
V
19 °C 10 km+ - 210° 210° 4 kt METAR EGJB 171050Z 21004KT 160V290 9999 FEW018 19/12 Q1022
11:20
V
19 °C 10 km+ - Var Var 3 kt METAR EGJB 171020Z VRB03KT 9999 FEW018 19/12 Q1022
10:50
V
18 °C 10 km+ - 260° 260° 5 kt METAR EGJB 170950Z 26005KT 210V290 9999 FEW015 SCT031 18/12 Q1022
10:20
V
18 °C 10 km+ 3.200 ft 250° 250° 4 kt METAR EGJB 170920Z 25004KT 200V280 9999 FEW011 BKN032 18/12 Q1022
09:50
V
17 °C 10 km+ 3.100 ft 240° 240° 5 kt METAR EGJB 170850Z 24005KT 210V280 9999 FEW011 BKN031 17/13 Q1022
09:20
M
17 °C 10 km+ 2.800 ft 280° 280° 3 kt METAR EGJB 170820Z 28003KT 210V330 9999 FEW009 BKN028 17/14 Q1022
08:50
M
16 °C 10 km+ 2.700 ft 250° 250° 5 kt METAR EGJB 170750Z 25005KT 9999 FEW007 BKN027 16/14 Q1022
08:20
M
16 °C 10 km+ 2.700 ft 230° 230° 5 kt METAR EGJB 170720Z 23005KT 9999 FEW007 BKN027 16/14 Q1022
07:50
M
15 °C 10 km+ 2.800 ft 220° 220° 4 kt METAR EGJB 170650Z 22004KT 9999 FEW007 BKN028 15/14 Q1021
07:20
M
15 °C 10 km+ 2.900 ft 200° 200° 3 kt METAR EGJB 170620Z 20003KT 130V230 9999 FEW007 BKN029 15/15 Q1021
06:50
M
15 °C 10 km+ 3.000 ft 250° 250° 3 kt METAR EGJB 170550Z 25003KT 9999 FEW007 BKN030 15/15 Q1021
06:20
M
15 °C 10 km+ 3.000 ft 260° 260° 3 kt METAR EGJB 170520Z 26003KT 220V290 9999 FEW007 BKN030 15/14 Q1020
05:50
M
14 °C 10 km+ 3.000 ft 300° 300° 4 kt METAR EGJB 170450Z 30004KT 9999 FEW007 BKN030 14/14 Q1020
05:20
V
14 °C 10 km+ - 300° 300° 4 kt METAR EGJB 170420Z 30004KT 9999 FEW007 SCT031 14/14 Q1020
04:50
V
14 °C 10 km+ - 290° 290° 4 kt METAR EGJB 170350Z 29004KT 9999 FEW007 14/14 Q1020
04:20
V
14 °C 10 km+ - 300° 300° 5 kt METAR EGJB 170320Z 30005KT 9999 FEW007 14/14 Q1020
03:50
I
15 °C 10 km+ 800 ft 300° 300° 5 kt METAR EGJB 170250Z 30005KT 270V330 9999 BKN008 15/15 Q1019
02:50
V
15 °C 10 km+ - 300° 300° 6 kt METAR EGJB 170150Z 30006KT 9999 FEW006 15/14 Q1020
01:50
V
15 °C 10 km+ - 300° 300° 7 kt METAR EGJB 170050Z 30007KT 9999 FEW004 15/14 Q1020
00:50
V
15 °C 10 km+ - 290° 290° 8 kt METAR EGJB 162350Z 29008KT 9999 FEW003 15/15 Q1019

16 luglio 2024

Tempo Codice Tempo meteorologico Temp. Vista Base nuvolosa Vento METAR/SPECI
23:50
V
15 °C 10 km+ - 280° 280° 9 kt METAR EGJB 162250Z 28009KT 9999 SCT003 15/15 Q1019
22:50
V
15 °C 10 km+ - 280° 280° 9 kt METAR EGJB 162150Z 28009KT 9999 FEW006 15/15 Q1019
21:50
V
16 °C 10 km+ - 280° 280° 9 kt METAR EGJB 162050Z 28009KT 9999 SCT005 16/15 Q1018
20:50
V
16 °C 10 km+ - 270° 270° 12 kt METAR EGJB 161950Z 27012KT 9999 FEW005 16/15 Q1018
20:20
V
16 °C 10 km+ - 260° 260° 11 kt METAR EGJB 161920Z 26011KT 9999 FEW007 16/14 Q1018
19:50
V
16 °C 10 km+ - 270° 270° 13 kt METAR EGJB 161850Z 27013KT 9999 FEW009 16/14 Q1018
19:20
V
17 °C 10 km+ - 270° 270° 12 kt METAR EGJB 161820Z 27012KT 9999 FEW008 17/14 Q1017
18:50
V
17 °C 10 km+ - 270° 270° 12 kt METAR EGJB 161750Z 27012KT 9999 FEW007 17/15 Q1017
18:20
V
17 °C 10 km+ - 260° 260° 13 kt METAR EGJB 161720Z 26013KT 9999 FEW007 17/15 Q1017
17:50
V
17 °C 10 km+ - 260° 260° 14 kt METAR EGJB 161650Z 26014KT 9999 FEW008 17/15 Q1017
17:20
V
18 °C 10 km+ - 260° 260° 16 kt METAR EGJB 161620Z 26016KT 9999 FEW010 18/15 Q1017
16:50
V
18 °C 10 km+ - 260° 260° 15 kt METAR EGJB 161550Z 26015KT 9999 FEW011 18/15 Q1017
16:20
V
19 °C 10 km+ - 260° 260° 16 kt METAR EGJB 161520Z 26016KT 9999 FEW010 19/15 Q1017
15:50
V
18 °C 10 km+ - 270° 270° 17 kt METAR EGJB 161450Z 27017KT 9999 FEW010 18/15 Q1016
15:20
V
19 °C 10 km+ - 270° 270° 14 kt METAR EGJB 161420Z 27014KT 9999 FEW009 19/15 Q1016
14:50
V
19 °C 10 km+ - 270° 270° 15 kt METAR EGJB 161350Z 27015KT 9999 SCT008 19/16 Q1016
14:20
I
18 °C 10 km+ 800 ft 270° 270° 16 kt METAR EGJB 161320Z 27016KT 9999 FEW006 BKN008 18/15 Q1016
13:50
V
19 °C 10 km+ - 280° 280° 16 kt METAR EGJB 161250Z 28016KT 9999 FEW008 19/15 Q1015
13:20
V
19 °C 10 km+ - 280° 280° 15 kt METAR EGJB 161220Z 28015KT 9999 FEW011 19/15 Q1015
12:50
V
18 °C 10 km+ - 270° 270° 17 kt METAR EGJB 161150Z 27017KT 9999 FEW013 18/15 Q1015
12:20
V
18 °C 10 km+ - 280° 280° 16 kt METAR EGJB 161120Z 28016KT 9999 FEW011 18/14 Q1014
11:50
V
18 °C 10 km+ - 280° 280° 16 kt METAR EGJB 161050Z 28016KT 9999 FEW010 18/14 Q1014
11:20
V
18 °C 10 km+ - 280° 280° 17 kt METAR EGJB 161020Z 28017KT 9999 FEW010 18/14 Q1014
10:50
V
18 °C 10 km+ - 280° 280° 16 kt METAR EGJB 160950Z 28016KT 9999 FEW010 18/15 Q1013
10:20
V
17 °C 10 km+ - 270° 270° 14 kt METAR EGJB 160920Z 27014KT 9999 FEW010 17/14 Q1013
09:50
V
18 °C 10 km+ - 270° 270° 15 kt METAR EGJB 160850Z 27015KT 9999 FEW010 18/15 Q1013
09:20
M
16 °C 10 km+ 2.800 ft 270° 270° 12 kt METAR EGJB 160820Z 27012KT 9999 FEW010 BKN028 16/14 Q1012
08:50
V
17 °C 10 km+ - 270° 270° 14 kt METAR EGJB 160750Z 27014KT 9999 FEW010 SCT023 17/14 Q1012
08:20
V
17 °C 10 km+ - 260° 260° 13 kt METAR EGJB 160720Z 26013KT 9999 FEW009 SCT048 17/14 Q1012
07:50
V
16 °C 10 km+ - 270° 270° 15 kt METAR EGJB 160650Z 27015KT 9999 VCSH FEW006 SCT045 16/14 Q1011
07:20
V
16 °C 10 km+ 4.200 ft 270° 270° 13 kt METAR EGJB 160620Z 27013KT 9999 VCSH FEW004 SCT005 BKN042 16/15 Q1011
06:50
I
15 °C 10 km+ 600 ft 250° 250° 15 kt METAR EGJB 160550Z 25015KT 9999 9000N VCSH FEW004 BKN006 15/15 Q1010
Segnala modifiche